Time;durP1;ratioP1;P1;durP2;ratioP2;P2;SDS_P1;SDS_P2;PMS_P1;PMS_P2;Temp;Humidity;BMP_temperature;BMP_pressure;BME280_temperature;BME280_humidity;BME280_pressure;Samples;Min_cycle;Max_cycle;Signal;HPM_P1;HPM_P2
2022/04/25 00:01:18;;;;;;;4.33;3.30;;;;;;;5.18;84.69;100756.72;5094542;28;20116;-66
2022/04/25 00:03:45;;;;;;;3.97;3.20;;;;;;;5.28;84.93;100765.56;5094391;28;20047;-67
2022/04/25 00:06:11;;;;;;;4.37;2.93;;;;;;;5.35;85.07;100786.16;5094450;28;20051;-67
2022/04/25 00:08:37;;;;;;;3.60;2.73;;;;;;;5.33;85.39;100793.38;5094580;28;20779;-67
2022/04/25 00:11:03;;;;;;;5.63;5.13;;;;;;;5.22;85.40;100771.34;5094799;28;20032;-67
2022/04/25 00:13:29;;;;;;;3.23;2.80;;;;;;;5.35;84.92;100789.63;5093207;28;20762;-67
2022/04/25 00:15:55;;;;;;;6.80;3.67;;;;;;;5.33;85.34;100782.81;5094294;28;20311;-66
2022/04/25 00:18:21;;;;;;;4.93;3.63;;;;;;;5.26;85.22;100783.34;5094177;28;20035;-67
2022/04/25 00:20:47;;;;;;;4.57;3.77;;;;;;;5.20;85.86;100768.00;5093699;28;20035;-69
2022/04/25 00:23:13;;;;;;;4.37;3.50;;;;;;;5.19;86.05;100773.38;5094422;28;20258;-66
2022/04/25 00:25:39;;;;;;;3.97;3.40;;;;;;;5.12;86.25;100759.88;5093824;28;20741;-67
2022/04/25 00:28:07;;;;;;;5.50;3.50;;;;;;;5.12;87.18;100759.88;5094417;28;20036;-69
2022/04/25 00:30:33;;;;;;;6.13;3.17;;;;;;;5.09;86.72;100754.84;5093991;28;20777;-67
2022/04/25 00:32:59;;;;;;;4.23;3.63;;;;;;;5.11;86.99;100752.91;5093905;28;20265;-67
2022/04/25 00:35:25;;;;;;;6.37;3.30;;;;;;;5.07;86.67;100756.78;5093978;28;20266;-68
2022/04/25 00:37:51;;;;;;;5.67;4.23;;;;;;;4.99;87.17;100743.38;5093939;28;20311;-67
2022/04/25 00:40:22;;;;;;;4.10;3.70;;;;;;;5.06;87.13;100744.53;5092509;28;20039;-68
2022/04/25 00:42:48;;;;;;;4.97;3.77;;;;;;;5.14;87.33;100757.09;5094066;28;20258;-69
2022/04/25 00:45:15;;;;;;;6.20;3.63;;;;;;;4.86;87.17;100697.84;5095312;28;20261;-65
2022/04/25 00:47:41;;;;;;;3.50;3.20;;;;;;;5.09;86.86;100741.66;5092735;28;20290;-67
2022/04/25 00:50:08;;;;;;;5.63;3.50;;;;;;;5.11;87.16;100744.16;5093750;28;20270;-69
2022/04/25 00:52:35;;;;;;;4.93;4.03;;;;;;;5.03;86.82;100718.41;5093798;28;20281;-67
2022/04/25 00:55:03;;;;;;;5.43;3.63;;;;;;;5.11;86.77;100741.50;5093780;28;20282;-68
2022/04/25 00:57:30;;;;;;;4.90;3.40;;;;;;;5.06;86.78;100722.59;5093448;28;20760;-68
2022/04/25 00:59:57;;;;;;;4.73;3.63;;;;;;;5.09;86.40;100722.34;5093692;28;20277;-66
2022/04/25 01:02:26;;;;;;;4.00;3.37;;;;;;;5.13;86.64;100727.22;5094995;28;20262;-67
2022/04/25 01:04:55;;;;;;;4.47;3.80;;;;;;;5.13;86.84;100734.31;5094433;28;20855;-67
2022/04/25 01:07:21;;;;;;;4.80;3.63;;;;;;;5.12;87.07;100725.53;5094791;28;20285;-67
2022/04/25 01:09:46;;;;;;;4.80;3.93;;;;;;;5.05;87.14;100716.47;5094327;28;20093;-67
2022/04/25 01:12:12;;;;;;;5.73;3.40;;;;;;;5.07;86.87;100714.53;5092216;28;20258;-68
2022/04/25 01:14:38;;;;;;;4.87;3.53;;;;;;;4.89;87.01;100687.03;5093696;28;20031;-68
2022/04/25 01:17:05;;;;;;;4.60;3.70;;;;;;;5.01;86.73;100703.66;5093370;28;20655;-68
2022/04/25 01:19:31;;;;;;;4.20;3.27;;;;;;;4.95;87.32;100694.47;5093971;28;20625;-68
2022/04/25 01:21:59;;;;;;;5.30;3.47;;;;;;;4.99;87.40;100701.16;5093402;28;20281;-67
2022/04/25 01:27:17;;;;;;;9.63;3.53;;;;;;;5.11;87.46;100709.84;5093038;28;20448;-67
2022/04/25 01:29:44;;;;;;;6.13;4.17;;;;;;;5.10;86.98;100719.56;5093002;28;20289;-68
2022/04/25 01:32:10;;;;;;;5.23;3.67;;;;;;;5.05;87.49;100721.75;5092241;28;20262;-69
2022/04/25 01:34:37;;;;;;;6.87;4.00;;;;;;;4.89;87.76;100694.94;5092795;28;20361;-66
2022/04/25 01:37:15;;;;;;;6.67;4.10;;;;;;;4.92;88.35;100682.38;5092646;28;20274;-69
2022/04/25 01:39:41;;;;;;;5.27;3.73;;;;;;;5.03;88.01;100705.22;5092720;28;20270;-68
2022/04/25 01:42:07;;;;;;;7.73;4.37;;;;;;;5.00;88.12;100694.91;5092689;28;20259;-67
2022/04/25 01:44:35;;;;;;;8.67;5.10;;;;;;;5.05;88.38;100705.91;5092484;28;20281;-68
2022/04/25 01:47:01;;;;;;;7.13;3.80;;;;;;;4.94;88.37;100679.59;5092491;28;20293;-69
2022/04/25 01:49:26;;;;;;;6.17;4.07;;;;;;;5.03;88.40;100689.38;5092931;28;20277;-66
2022/04/25 01:51:52;;;;;;;6.13;4.07;;;;;;;5.08;88.76;100700.38;5092740;28;20262;-67
2022/04/25 01:54:26;;;;;;;9.53;4.30;;;;;;;4.98;88.58;100683.66;5092359;28;20127;-67
2022/04/25 01:57:17;;;;;;;;;;;;;;;5.05;88.47;100690.06;5093226;28;20664;-68
2022/04/25 01:59:43;;;;;;;5.43;3.70;;;;;;;5.00;88.28;100683.53;5092510;28;19919;-66
2022/04/25 02:02:11;;;;;;;6.17;3.97;;;;;;;4.96;89.01;100675.03;5092325;28;20483;-67
2022/04/25 02:04:36;;;;;;;5.03;3.97;;;;;;;4.96;89.11;100675.88;5092174;28;20763;-66
2022/04/25 02:07:02;;;;;;;7.47;4.97;;;;;;;4.95;88.96;100678.63;5091906;28;20296;-69
2022/04/25 02:09:27;;;;;;;6.03;4.07;;;;;;;4.99;88.92;100674.75;5091995;28;20036;-67
2022/04/25 02:11:53;;;;;;;6.07;4.53;;;;;;;4.97;88.63;100666.13;5092217;28;20035;-66
2022/04/25 02:14:18;;;;;;;6.53;4.47;;;;;;;4.93;88.46;100656.81;5090908;28;20127;-66
2022/04/25 02:16:45;;;;;;;13.00;8.57;;;;;;;4.94;88.10;100659.31;5092001;28;20063;-67
2022/04/25 02:19:10;;;;;;;7.70;4.73;;;;;;;5.04;88.81;100672.56;5092395;28;20032;-67
2022/04/25 02:21:36;;;;;;;6.30;3.93;;;;;;;4.93;88.37;100656.81;5091918;28;20323;-67
2022/04/25 02:24:02;;;;;;;6.23;4.00;;;;;;;5.04;87.97;100667.28;5092229;28;20054;-66
2022/04/25 02:26:28;;;;;;;6.10;4.20;;;;;;;4.99;87.63;100658.94;5092184;28;20411;-68
2022/04/25 02:28:54;;;;;;;7.80;4.77;;;;;;;5.01;88.20;100659.63;5091868;28;20290;-69
2022/04/25 02:31:21;;;;;;;11.77;4.83;;;;;;;4.96;87.75;100646.84;5091821;28;20047;-68
2022/04/25 02:33:47;;;;;;;8.10;4.17;;;;;;;4.99;88.51;100653.66;5091581;28;20387;-69
2022/04/25 02:36:13;;;;;;;4.33;3.90;;;;;;;5.00;87.71;100636.84;5091598;28;20780;-69
2022/04/25 02:38:40;;;;;;;5.97;3.60;;;;;;;5.03;87.93;100638.38;5092023;28;20040;-67
2022/04/25 02:41:06;;;;;;;7.37;4.30;;;;;;;4.97;87.88;100632.66;5091507;28;20035;-67
2022/04/25 02:43:43;;;;;;;4.90;4.27;;;;;;;5.08;87.52;100649.38;5095405;28;20890;-67
2022/04/25 02:46:11;;;;;;;5.17;4.60;;;;;;;5.01;87.73;100635.03;5095488;28;20281;-67
2022/04/25 02:48:38;;;;;;;8.00;3.83;;;;;;;5.03;87.97;100644.50;5094935;28;20664;-67
2022/04/25 02:51:05;;;;;;;6.47;3.57;;;;;;;5.03;88.00;100635.75;5096089;28;20031;-66
2022/04/25 02:53:32;;;;;;;5.03;4.17;;;;;;;4.97;87.71;100624.75;5095830;28;20269;-65
2022/04/25 02:55:58;;;;;;;5.97;3.93;;;;;;;5.03;88.00;100633.09;5061173;28;20629;-69
2022/04/25 02:58:26;;;;;;;6.82;4.50;;;;;;;4.89;87.65;100621.06;5096098;28;20350;-67
2022/04/25 03:00:53;;;;;;;5.77;3.90;;;;;;;4.96;87.66;100632.78;5096516;28;20130;-67
2022/04/25 03:03:20;;;;;;;6.37;3.93;;;;;;;5.02;87.69;100637.56;5096933;28;20043;-65
2022/04/25 03:05:50;;;;;;;5.73;4.17;;;;;;;4.93;88.26;100609.31;5096045;28;20780;-68
2022/04/25 03:08:22;;;;;;;5.77;4.13;;;;;;;4.83;88.20;100582.00;5095655;28;20830;-68
2022/04/25 03:10:51;;;;;;;5.00;3.93;;;;;;;5.02;87.67;100619.06;5095430;28;20273;-69
2022/04/25 03:13:16;;;;;;;;;;;;;;;5.06;88.18;100623.13;5095780;28;20280;-69
2022/04/25 03:15:43;;;;;;;5.53;3.80;;;;;;;4.94;88.15;100597.78;5093890;28;19919;-68
2022/04/25 03:18:10;;;;;;;6.77;3.90;;;;;;;5.04;87.83;100609.22;5095518;28;20127;-67
2022/04/25 03:20:37;;;;;;;6.60;4.83;;;;;;;4.97;87.47;100597.53;5095316;28;20274;-71
2022/04/25 03:23:05;;;;;;;5.83;4.17;;;;;;;5.04;88.23;100609.22;5095381;28;21105;-68
2022/04/25 03:25:31;;;;;;;7.37;4.57;;;;;;;5.01;88.29;100592.81;5095255;28;20262;-68
2022/04/25 03:27:59;;;;;;;6.27;4.90;;;;;;;5.06;88.73;100598.53;5093761;28;20302;-67
2022/04/25 03:30:25;;;;;;;4.55;3.63;;;;;;;5.16;88.08;100602.03;5093748;28;20296;-69
2022/04/25 03:32:52;;;;;;;5.80;4.40;;;;;;;5.12;87.66;100593.56;5095089;28;20498;-68
2022/04/25 03:35:19;;;;;;;8.27;4.83;;;;;;;5.06;87.78;100588.81;5095184;28;20317;-68
2022/04/25 03:37:46;;;;;;;5.97;4.23;;;;;;;4.97;88.24;100582.53;5093865;28;20266;-68
2022/04/25 03:40:12;;;;;;;5.80;3.77;;;;;;;5.05;88.91;100591.59;5094847;28;20368;-68
2022/04/25 03:42:41;;;;;;;6.07;4.40;;;;;;;5.17;87.68;100594.00;5094757;28;20320;-68
2022/04/25 03:45:09;;;;;;;6.13;4.20;;;;;;;5.16;88.06;100594.97;5094940;28;20320;-69
2022/04/25 03:47:41;;;;;;;6.50;4.47;;;;;;;5.00;88.17;100570.88;5095015;28;20286;-66
2022/04/25 03:50:08;;;;;;;9.00;4.73;;;;;;;5.15;88.17;100595.94;5094679;28;20270;-67
2022/04/25 03:52:38;;;;;;;6.40;4.63;;;;;;;5.16;88.25;100592.31;5094715;28;20356;-66
2022/04/25 03:57:48;;;;;;;5.67;4.37;;;;;;;5.26;87.73;100580.03;5094927;28;20266;-68
2022/04/25 04:00:19;;;;;;;6.63;4.60;;;;;;;5.23;88.10;100577.66;5094967;28;20281;-68
2022/04/25 04:02:44;;;;;;;6.90;4.33;;;;;;;5.31;87.63;100581.41;5094608;28;20354;-69
2022/04/25 04:05:11;;;;;;;6.90;4.10;;;;;;;5.29;87.06;100565.72;5094653;28;20505;-67
2022/04/25 04:07:37;;;;;;;5.80;4.23;;;;;;;5.40;87.12;100575.31;5094523;28;20044;-68
2022/04/25 04:10:02;;;;;;;6.80;5.27;;;;;;;5.37;87.96;100547.38;5094571;28;20268;-65
2022/04/25 04:12:31;;;;;;;4.87;4.10;;;;;;;5.52;87.15;100576.91;5094553;28;20497;-68
2022/04/25 04:14:58;;;;;;;7.93;3.90;;;;;;;5.48;87.35;100570.19;5093416;28;20270;-68
2022/04/25 04:17:24;;;;;;;4.80;4.17;;;;;;;5.35;87.13;100559.06;5094508;28;20269;-68
2022/04/25 04:19:53;;;;;;;6.37;4.03;;;;;;;5.29;87.69;100541.94;5094446;28;20274;-68
2022/04/25 04:22:21;;;;;;;7.15;4.40;;;;;;;4.77;88.08;100463.81;5094096;28;20633;-67
2022/04/25 04:24:47;;;;;;;4.95;3.80;;;;;;;5.36;87.38;100563.38;5092855;28;20470;-68
2022/04/25 04:27:14;;;;;;;4.93;4.20;;;;;;;5.25;87.47;100545.84;5094021;28;20246;-67
2022/04/25 04:29:41;;;;;;;5.70;4.20;;;;;;;5.27;87.53;100552.66;5094760;28;20848;-67
2022/04/25 04:32:08;;;;;;;5.63;4.53;;;;;;;5.34;87.85;100557.38;5095075;28;20281;-68
2022/04/25 04:34:35;;;;;;;6.40;4.63;;;;;;;5.26;87.80;100543.06;5092654;28;20270;-69
2022/04/25 04:37:02;;;;;;;6.63;4.83;;;;;;;5.38;87.40;100553.50;5092908;28;20291;-69
2022/04/25 04:39:28;;;;;;;5.93;4.67;;;;;;;5.35;87.57;100559.06;5094685;28;20760;-68
2022/04/25 04:41:54;;;;;;;7.30;5.03;;;;;;;5.38;88.21;100556.16;5094317;28;20266;-67
2022/04/25 04:44:20;;;;;;;7.07;4.60;;;;;;;5.34;87.96;100542.38;5075753;28;20031;-69
2022/04/25 04:46:45;;;;;;;6.23;4.70;;;;;;;5.42;88.14;100555.72;5094162;28;20406;-69
2022/04/25 04:49:10;;;;;;;8.20;4.83;;;;;;;5.43;88.26;100546.00;5094716;28;20123;-68
2022/04/25 04:51:36;;;;;;;9.53;4.80;;;;;;;5.57;87.79;100557.03;5094369;28;20131;-69
2022/04/25 04:54:02;;;;;;;6.80;4.37;;;;;;;5.63;86.92;100557.47;5094306;28;20035;-68
2022/04/25 04:56:31;;;;;;;6.33;4.77;;;;;;;5.62;87.07;100551.34;5094184;28;20036;-67
2022/04/25 04:58:58;;;;;;;7.23;4.87;;;;;;;5.67;86.95;100548.28;5093967;28;20502;-67
2022/04/25 05:01:25;;;;;;;7.53;5.17;;;;;;;5.59;86.93;100548.97;5092292;28;20281;-69
2022/04/25 05:03:51;;;;;;;7.67;4.57;;;;;;;5.68;87.25;100549.97;5091942;28;20838;-68
2022/04/25 05:06:16;;;;;;;7.53;4.93;;;;;;;5.67;87.15;100543.84;5091508;28;20059;-66
2022/04/25 05:08:42;;;;;;;6.43;5.37;;;;;;;5.62;87.14;100535.50;5093547;28;20115;-70
2022/04/25 05:11:09;;;;;;;6.20;5.10;;;;;;;5.69;87.56;100544.53;5091944;28;20042;-68
2022/04/25 05:13:38;;;;;;;6.07;4.87;;;;;;;5.58;87.36;100529.66;5092816;28;20031;-69
2022/04/25 05:16:05;;;;;;;7.40;5.35;;;;;;;5.55;86.89;100523.81;5092160;28;20270;-67
2022/04/25 05:18:33;;;;;;;6.30;4.63;;;;;;;5.63;87.10;100537.16;5093252;28;20043;-66
2022/04/25 05:21:02;;;;;;;8.70;6.38;;;;;;;5.57;87.89;100524.50;5093200;28;20266;-68
2022/04/25 05:23:29;;;;;;;6.63;4.67;;;;;;;5.60;87.55;100518.94;5093856;28;20035;-70
2022/04/25 05:25:57;;;;;;;4.87;4.40;;;;;;;5.71;87.62;100537.31;5093227;28;20270;-68
2022/04/25 05:28:25;;;;;;;11.45;4.82;;;;;;;5.70;87.08;100530.34;5093305;28;20290;-70
2022/04/25 05:30:50;;;;;;;7.70;4.83;;;;;;;5.75;87.54;100537.88;5093040;28;20036;-68
2022/04/25 05:33:17;;;;;;;6.53;4.80;;;;;;;5.63;87.05;100518.69;5093088;28;20606;-68
2022/04/25 05:35:43;;;;;;;5.47;4.73;;;;;;;5.66;86.88;100520.22;5092961;28;20040;-68
2022/04/25 05:38:10;;;;;;;6.60;5.17;;;;;;;5.71;86.79;100534.66;5092669;28;20745;-68
2022/04/25 05:40:36;;;;;;;7.73;5.30;;;;;;;5.64;87.52;100515.06;5092413;28;20266;-66
2022/04/25 05:43:04;;;;;;;5.93;4.73;;;;;;;5.69;87.44;100530.50;5092091;28;20320;-70
2022/04/25 05:45:30;;;;;;;6.78;4.80;;;;;;;5.64;88.00;100520.34;5092323;28;20270;-72
2022/04/25 05:47:57;;;;;;;5.73;5.13;;;;;;;5.65;87.94;100514.09;5092230;28;20082;-70
2022/04/25 05:53:11;;;;;;;;;;;;;;;5.81;87.42;100524.97;5091529;28;20470;-65
2022/04/25 05:55:37;;;;;;;7.20;4.97;;;;;;;5.71;87.08;100518.81;5092572;28;19916;-76
2022/04/25 05:58:04;;;;;;;8.37;4.90;;;;;;;5.56;87.53;100480.56;5092338;28;20032;-65
2022/04/25 06:00:30;;;;;;;5.27;4.67;;;;;;;5.55;86.67;100490.31;5091160;28;20032;-67
2022/04/25 06:02:57;;;;;;;5.40;4.57;;;;;;;5.43;87.90;100477.34;5091893;28;20902;-66
2022/04/25 06:05:23;;;;;;;9.70;5.63;;;;;;;5.66;88.07;100510.47;5090710;28;20637;-68
2022/04/25 06:07:50;;;;;;;8.30;5.13;;;;;;;5.69;87.70;100515.47;5092189;28;20294;-64
2022/04/25 06:10:18;;;;;;;6.90;5.63;;;;;;;5.54;87.98;100488.63;5091689;28;20641;-65
2022/04/25 06:12:47;;;;;;;9.97;6.40;;;;;;;5.60;87.58;100484.59;5091651;28;20273;-62
2022/04/25 06:15:14;;;;;;;7.53;5.37;;;;;;;5.64;88.61;100496.56;5091642;28;20540;-63
2022/04/25 06:17:39;;;;;;;7.37;5.70;;;;;;;5.63;88.92;100478.22;5091450;28;20273;-63
2022/04/25 06:20:06;;;;;;;8.53;5.60;;;;;;;5.79;89.12;100500.50;5091813;28;20262;-67
2022/04/25 06:22:32;;;;;;;9.60;5.70;;;;;;;5.84;88.54;100498.25;5091868;28;20635;-61
2022/04/25 06:24:58;;;;;;;7.50;6.33;;;;;;;5.87;88.01;100497.97;5091664;28;20889;-64
2022/04/25 06:27:24;;;;;;;6.67;4.97;;;;;;;5.72;87.94;100472.09;5089594;28;20068;-62
2022/04/25 06:29:52;;;;;;;6.50;4.57;;;;;;;5.82;87.81;100494.94;5074502;28;20862;-63
2022/04/25 06:32:19;;;;;;;7.67;5.50;;;;;;;5.77;87.88;100491.00;5093700;28;20278;-64
2022/04/25 06:34:45;;;;;;;6.13;4.87;;;;;;;5.74;87.55;100476.25;5094864;28;20063;-67
2022/04/25 06:37:11;;;;;;;5.30;4.57;;;;;;;5.70;88.31;100469.59;5074017;28;20296;-63
2022/04/25 06:39:36;;;;;;;5.10;4.60;;;;;;;5.63;88.26;100457.91;5091639;28;20040;-65
2022/04/25 06:42:02;;;;;;;8.50;4.50;;;;;;;5.64;87.69;100478.06;5091541;28;20535;-64
2022/04/25 06:44:28;;;;;;;7.50;4.50;;;;;;;5.72;88.23;100480.84;5091796;28;20518;-64
2022/04/25 06:46:54;;;;;;;5.93;4.20;;;;;;;5.73;87.58;100481.69;5091573;28;20322;-63
2022/04/25 06:49:25;;;;;;;4.93;4.50;;;;;;;5.73;87.91;100477.22;5092700;28;20073;-65
2022/04/25 06:51:56;;;;;;;4.83;4.23;;;;;;;5.71;88.63;100475.72;5092846;28;20035;-65
2022/04/25 06:54:26;;;;;;;6.80;4.70;;;;;;;5.53;87.89;100451.78;5093526;28;20066;-76
2022/04/25 06:56:56;;;;;;;5.97;4.70;;;;;;;5.50;88.23;100452.06;5093964;28;20081;-69
2022/04/25 06:59:22;;;;;;;8.53;4.53;;;;;;;5.54;88.06;100474.59;5086935;28;20289;-69
2022/04/25 07:01:50;;;;;;;5.33;4.37;;;;;;;5.56;88.70;100470.00;5080295;28;20056;-70
2022/04/25 07:04:16;;;;;;;5.80;4.37;;;;;;;5.59;88.44;100461.81;5071553;28;20277;-70
2022/04/25 07:06:43;;;;;;;7.50;5.23;;;;;;;5.81;88.08;100474.75;5071345;28;20283;-74
2022/04/25 07:09:12;;;;;;;6.53;5.30;;;;;;;5.53;87.98;100431.50;5070196;28;20123;-71
2022/04/25 07:11:43;;;;;;;9.60;5.43;;;;;;;5.87;88.39;100471.56;5071492;28;20274;-64
2022/04/25 07:14:18;;;;;;;5.67;5.07;;;;;;;5.78;87.55;100464.47;5071468;28;20263;-66
2022/04/25 07:16:45;;;;;;;8.30;5.50;;;;;;;5.81;87.82;100456.25;5071161;28;20128;-64
2022/04/25 07:19:12;;;;;;;5.37;4.73;;;;;;;5.84;87.83;100453.34;5070998;28;20041;-67
2022/04/25 07:29:56;;;;;;;7.00;4.90;;;;;;;5.79;87.20;100463.50;5071895;28;20139;-65
2022/04/25 07:32:23;;;;;;;4.80;4.30;;;;;;;5.73;87.29;100452.63;5074926;28;20348;-71
2022/04/25 07:34:48;;;;;;;5.20;4.70;;;;;;;5.87;87.54;100466.28;5074710;28;20037;-68
2022/04/25 07:37:15;;;;;;;5.87;4.70;;;;;;;5.86;87.76;100448.75;5074804;28;20269;-71
2022/04/25 07:39:42;;;;;;;4.10;3.70;;;;;;;5.98;87.40;100461.84;5074677;28;20024;-80
2022/04/25 07:42:08;;;;;;;4.83;3.80;;;;;;;5.84;86.93;100450.69;5074659;28;20263;-74
2022/04/25 07:44:34;;;;;;;5.20;3.53;;;;;;;5.89;86.37;100453.78;5079550;28;20115;-74
2022/04/25 07:46:59;;;;;;;5.73;3.50;;;;;;;5.74;86.92;100423.41;5076650;28;20340;-72
2022/04/25 07:49:26;;;;;;;4.73;4.03;;;;;;;5.82;87.15;100434.16;5074947;28;20032;-72
2022/04/25 07:51:52;;;;;;;4.40;3.47;;;;;;;5.76;87.19;100413.53;5073185;28;20097;-75
2022/04/25 07:54:19;;;;;;;4.70;4.20;;;;;;;6.08;86.74;100447.66;5074246;28;20119;-71
2022/04/25 07:56:45;;;;;;;4.33;3.63;;;;;;;6.04;86.62;100433.00;5074196;28;20302;-70
2022/04/25 07:59:11;;;;;;;4.67;3.90;;;;;;;6.25;87.03;100440.78;5073334;28;20040;-70
2022/04/25 08:01:37;;;;;;;5.70;3.73;;;;;;;6.45;85.93;100434.47;5074644;28;20457;-74
2022/04/25 08:04:03;;;;;;;4.70;3.23;;;;;;;6.47;85.06;100432.50;5074183;28;20037;-69
2022/04/25 08:06:29;;;;;;;4.30;3.90;;;;;;;6.43;85.11;100420.56;5074284;28;20056;-70
2022/04/25 08:08:56;;;;;;;3.73;3.33;;;;;;;6.49;83.68;100424.44;5074225;28;20348;-70
2022/04/25 08:11:23;;;;;;;5.33;4.10;;;;;;;6.42;83.72;100402.19;5073775;28;20044;-66
2022/04/25 08:19:18;;;;;;;4.27;3.87;;;;;;;6.48;84.38;100434.19;5074022;28;20029;-71
2022/04/25 08:21:44;;;;;;;5.23;3.97;;;;;;;6.48;83.92;100444.75;5073798;28;20083;-72
2022/04/25 08:24:12;;;;;;;4.10;3.67;;;;;;;6.31;84.59;100424.34;5074607;28;20032;-74
2022/04/25 08:26:38;;;;;;;5.03;3.77;;;;;;;6.36;84.79;100445.94;5074273;28;20075;-72
2022/04/25 08:29:04;;;;;;;4.70;3.93;;;;;;;6.25;84.28;100432.84;5084989;28;20064;-76
2022/04/25 08:31:35;;;;;;;4.90;4.20;;;;;;;6.40;84.41;100446.47;5077405;28;20044;-73
2022/04/25 08:34:03;;;;;;;4.37;3.97;;;;;;;6.24;84.37;100409.19;5073933;28;20049;-73
2022/04/25 08:36:29;;;;;;;3.63;3.33;;;;;;;6.39;83.74;100435.06;5073628;28;20045;-72
2022/04/25 08:38:55;;;;;;;5.03;4.53;;;;;;;6.41;83.90;100438.38;5073504;28;20069;-68
2022/04/25 08:41:27;;;;;;;3.07;2.77;;;;;;;6.22;83.85;100422.56;5072154;28;20064;-72
2022/04/25 08:43:55;;;;;;;3.53;2.83;;;;;;;6.29;84.38;100434.22;5072409;28;20060;-69
2022/04/25 08:46:22;;;;;;;2.97;2.70;;;;;;;6.22;83.83;100435.78;5073454;28;20039;-66
2022/04/25 08:48:49;;;;;;;5.13;3.63;;;;;;;6.22;84.33;100435.78;5073309;28;20040;-69
2022/04/25 08:51:15;;;;;;;4.47;3.50;;;;;;;6.20;83.92;100420.06;5073210;28;20040;-63
2022/04/25 08:53:43;;;;;;;3.90;2.80;;;;;;;6.32;83.58;100426.00;5073178;28;20043;-65
2022/04/25 08:56:09;;;;;;;2.50;2.20;;;;;;;6.28;83.31;100419.34;5072594;28;20116;-69
2022/04/25 08:58:41;;;;;;;2.80;2.60;;;;;;;6.14;83.76;100406.59;5071955;28;20060;-71
2022/04/25 09:01:10;;;;;;;3.20;2.90;;;;;;;6.16;84.49;100415.19;5073401;28;20101;-69
2022/04/25 09:03:36;;;;;;;3.23;2.93;;;;;;;6.22;83.66;100428.69;5072743;28;20491;-68
2022/04/25 09:06:03;;;;;;;3.57;3.03;;;;;;;6.13;84.31;100412.84;5072990;28;20035;-68
2022/04/25 09:08:29;;;;;;;4.23;3.03;;;;;;;6.26;84.44;100423.09;5055100;28;20087;-69
2022/04/25 09:12:09;;;;;;;2.90;2.60;;;;;;;6.27;84.44;100419.47;5072928;28;20064;-72
2022/04/25 09:13:43;;;;;;;3.25;2.58;;;;;;;6.16;83.19;100401.97;5072856;28;20456;-69
2022/04/25 09:16:12;;;;;;;3.23;2.40;;;;;;;6.24;82.26;100425.06;5072633;28;20072;-67
2022/04/25 09:18:38;;;;;;;3.65;3.22;;;;;;;6.05;82.77;100399.47;5072994;28;20040;-71
2022/04/25 09:21:05;;;;;;;4.20;3.70;;;;;;;6.22;82.79;100418.09;5072339;28;20041;-65
2022/04/25 09:23:30;;;;;;;4.60;3.70;;;;;;;6.24;82.59;100419.78;5072517;28;20040;-70
2022/04/25 09:26:21;;;;;;;4.80;3.80;;;;;;;6.31;82.58;100423.50;5070766;28;20033;-71
2022/04/25 09:28:50;;;;;;;4.03;3.40;;;;;;;6.38;82.62;100419.34;5071299;28;20487;-70
2022/04/25 09:31:17;;;;;;;3.57;3.27;;;;;;;6.30;81.74;100403.31;5070651;28;20398;-68
2022/04/25 09:33:43;;;;;;;3.57;3.03;;;;;;;6.28;82.52;100400.81;5070928;28;20071;-69
2022/04/25 09:36:10;;;;;;;5.37;3.80;;;;;;;6.31;82.73;100413.75;5070859;28;20576;-65
2022/04/25 09:38:38;;;;;;;4.57;3.70;;;;;;;6.36;82.82;100408.91;5070096;28;20034;-72
2022/04/25 09:41:06;;;;;;;8.20;3.10;;;;;;;6.39;82.17;100400.66;5071932;28;20449;-65
2022/04/25 09:43:34;;;;;;;5.78;3.15;;;;;;;6.31;81.48;100397.88;5072168;28;20480;-65
2022/04/25 09:46:11;;;;;;;2.53;2.20;;;;;;;6.31;81.48;100399.69;5072323;28;20036;-68
2022/04/25 09:48:41;;;;;;;2.80;2.50;;;;;;;6.33;81.91;100409.16;5070937;28;20396;-62
2022/04/25 09:51:16;;;;;;;2.87;2.67;;;;;;;6.34;81.32;100413.47;5072082;28;20507;-68
2022/04/25 09:53:50;;;;;;;2.30;2.10;;;;;;;6.31;81.65;100395.25;5071632;28;20048;-68
2022/04/25 09:56:28;;;;;;;3.27;2.43;;;;;;;6.27;82.28;100400.97;5072313;28;20124;-67
2022/04/25 09:59:02;;;;;;;3.03;2.73;;;;;;;6.33;80.83;100403.88;5072271;28;20130;-66
2022/04/25 10:01:30;;;;;;;2.93;2.70;;;;;;;6.35;81.38;100395.78;5071993;28;20060;-67
2022/04/25 10:03:56;;;;;;;2.93;2.63;;;;;;;6.25;81.40;100379.13;5072002;28;20040;-66
2022/04/25 10:06:22;;;;;;;5.47;3.07;;;;;;;6.19;81.86;100370.78;5071953;28;20085;-63
2022/04/25 10:08:49;;;;;;;3.47;3.13;;;;;;;6.45;82.47;100402.72;5072087;28;20495;-67
2022/04/25 10:11:18;;;;;;;3.03;2.83;;;;;;;6.42;81.47;100396.91;5071891;28;20056;-68
2022/04/25 10:13:46;;;;;;;3.83;3.17;;;;;;;6.49;81.63;100398.81;5072070;28;20056;-76
2022/04/25 10:16:12;;;;;;;4.93;3.40;;;;;;;6.52;81.68;100408.28;5071737;28;20418;-66
2022/04/25 10:18:39;;;;;;;4.43;4.00;;;;;;;6.50;80.62;100402.28;5072155;28;20123;-65
2022/04/25 10:21:07;;;;;;;3.97;3.50;;;;;;;6.26;81.41;100381.63;5075519;28;20070;-65
2022/04/25 10:23:34;;;;;;;6.88;3.92;;;;;;;6.26;81.27;100410.72;5075446;28;20037;-64
2022/04/25 10:26:04;;;;;;;5.40;3.53;;;;;;;6.08;82.55;100394.78;5072665;28;20045;-68
2022/04/25 10:28:50;;;;;;;4.60;3.80;;;;;;;6.07;82.85;100402.81;5070519;28;20047;-74
2022/04/25 10:31:23;;;;;;;4.90;4.40;;;;;;;6.04;82.38;100397.81;5071634;28;20048;-68
2022/04/25 10:33:58;;;;;;;5.63;4.43;;;;;;;6.15;82.86;100408.25;5071603;28;20178;-70
2022/04/25 10:36:36;;;;;;;4.50;4.10;;;;;;;6.14;82.03;100403.94;5070724;28;20044;-67
2022/04/25 10:39:20;;;;;;;4.32;3.90;;;;;;;5.92;82.80;100396.31;5074173;28;20617;-64
2022/04/25 10:44:44;;;;;;;4.77;4.23;;;;;;;6.01;82.82;100393.66;5072808;28;20041;-69
2022/04/25 10:47:22;;;;;;;7.97;4.33;;;;;;;6.05;83.39;100402.97;5071673;28;20046;-67
2022/04/25 10:49:59;;;;;;;6.57;5.13;;;;;;;6.08;83.43;100404.50;5071639;28;20098;-73
2022/04/25 10:52:42;;;;;;;5.83;4.57;;;;;;;6.04;82.60;100403.09;5073436;28;20082;-73
2022/04/25 10:55:30;;;;;;;6.63;4.47;;;;;;;6.09;82.66;100412.31;5073214;28;20039;-71
2022/04/25 10:58:04;;;;;;;6.37;4.17;;;;;;;6.06;83.16;100417.84;5073881;28;20089;-71
2022/04/25 11:00:43;;;;;;;5.63;4.57;;;;;;;6.10;82.93;100407.84;5073865;28;20033;-69
2022/04/25 11:03:08;;;;;;;4.82;3.85;;;;;;;6.20;82.74;100413.94;5071958;28;20029;-70
2022/04/25 11:05:35;;;;;;;4.10;3.70;;;;;;;6.19;82.44;100401.69;5075269;28;20032;-71
2022/04/25 11:08:19;;;;;;;6.13;3.87;;;;;;;6.20;82.16;100413.94;5075454;28;20036;-73
2022/04/25 11:10:49;;;;;;;4.03;3.37;;;;;;;6.08;82.06;100405.34;5075194;28;20051;-69
2022/04/25 11:13:19;;;;;;;6.60;4.73;;;;;;;6.12;82.15;100419.13;5073930;28;20075;-68
2022/04/25 11:15:46;;;;;;;5.73;4.07;;;;;;;6.09;82.29;100416.75;5074982;28;20097;-69
2022/04/25 11:18:23;;;;;;;4.57;3.83;;;;;;;6.08;82.91;100417.72;5075152;28;20063;-67
2022/04/25 11:20:59;;;;;;;5.27;4.63;;;;;;;5.87;83.12;100371.13;5074795;28;20040;-65
2022/04/25 11:23:30;;;;;;;7.80;4.90;;;;;;;5.84;82.50;100366.13;5074786;28;20128;-67
2022/04/25 11:25:57;;;;;;;7.17;4.13;;;;;;;6.12;82.41;100403.25;5075171;28;20068;-67
2022/04/25 11:29:11;;;;;;;5.23;3.43;;;;;;;6.31;81.72;100411.13;5075864;28;20422;-67
2022/04/25 11:31:38;;;;;;;5.97;4.87;;;;;;;6.13;82.01;100370.53;5074922;28;20044;-68
2022/04/25 11:34:13;;;;;;;6.50;4.93;;;;;;;6.51;81.62;100418.03;5073566;28;20036;-68
2022/04/25 11:36:45;;;;;;;5.90;5.20;;;;;;;6.53;81.38;100421.34;5074973;28;20036;-66
2022/04/25 11:41:59;;;;;;;9.95;4.95;;;;;;;6.42;80.61;100418.91;5079678;28;20028;-66
2022/04/25 11:44:24;;;;;;;5.80;4.77;;;;;;;6.25;80.50;100411.69;5076594;28;20040;-68
2022/04/25 11:46:51;;;;;;;5.37;4.47;;;;;;;6.12;81.64;100416.47;5076134;28;20043;-68
2022/04/25 11:49:31;;;;;;;5.30;4.33;;;;;;;5.42;82.00;100327.78;5076137;28;20044;-69
2022/04/25 11:52:00;;;;;;;6.77;5.03;;;;;;;5.87;81.68;100405.47;5075024;28;20039;-69
2022/04/25 11:54:26;;;;;;;12.98;6.63;;;;;;;6.00;82.94;100413.13;5074552;28;20399;-70
2022/04/25 11:56:52;;;;;;;4.90;4.20;;;;;;;6.13;82.92;100418.97;5073317;28;20040;-72
2022/04/25 11:59:19;;;;;;;5.27;4.33;;;;;;;6.25;82.04;100422.28;5056670;28;20459;-75
2022/04/25 12:01:48;;;;;;;6.13;4.53;;;;;;;6.16;81.24;100425.78;5074474;28;20041;-69
2022/04/25 12:04:17;;;;;;;4.18;3.35;;;;;;;5.74;81.18;100383.78;5074458;28;20043;-70
2022/04/25 12:06:54;;;;;;;7.00;4.90;;;;;;;6.03;81.45;100423.41;5072762;28;20036;-67